createdAt,value
2019-03-17T00:00:11.634Z,8.50
2019-03-17T00:02:41.036Z,8.50
2019-03-17T00:05:10.149Z,8.50
2019-03-17T00:10:14.200Z,8.50
2019-03-17T00:12:43.359Z,8.50
2019-03-17T00:15:12.723Z,8.50
2019-03-17T00:17:42.114Z,8.60
2019-03-17T00:20:11.320Z,8.60
2019-03-17T00:22:40.544Z,8.60
2019-03-17T00:25:10.323Z,8.50
2019-03-17T00:27:39.573Z,8.60
2019-03-17T00:30:09.069Z,8.50
2019-03-17T00:32:38.138Z,8.60
2019-03-17T00:35:08.087Z,8.60
2019-03-17T00:37:37.370Z,8.50
2019-03-17T00:40:06.473Z,8.50
2019-03-17T00:42:35.478Z,8.60
2019-03-17T00:45:05.220Z,8.50
2019-03-17T00:47:34.433Z,8.60
2019-03-17T00:50:05.024Z,8.50
2019-03-17T00:52:34.391Z,8.50
2019-03-17T00:55:03.372Z,8.60
2019-03-17T00:57:32.461Z,8.60
2019-03-17T01:00:01.477Z,8.60
2019-03-17T01:02:30.637Z,8.60
2019-03-17T01:04:59.794Z,8.60
2019-03-17T01:07:29.090Z,8.60
2019-03-17T01:09:58.422Z,8.60
2019-03-17T01:12:27.777Z,8.60
2019-03-17T01:14:56.913Z,8.60
2019-03-17T01:17:26.023Z,8.70
2019-03-17T01:19:55.205Z,8.70
2019-03-17T01:22:24.571Z,8.70
2019-03-17T01:27:28.237Z,8.70
2019-03-17T01:29:57.613Z,8.70
2019-03-17T01:32:27.276Z,8.70
2019-03-17T01:35:08.223Z,8.70
2019-03-17T01:37:27.097Z,8.80
2019-03-17T01:39:56.703Z,8.80
2019-03-17T01:42:25.716Z,8.80
2019-03-17T01:44:55.530Z,8.80
2019-03-17T01:47:27.557Z,8.80
2019-03-17T01:49:55.392Z,8.80
2019-03-17T01:52:24.817Z,8.80
2019-03-17T01:54:53.834Z,8.80
2019-03-17T01:59:58.115Z,8.80
2019-03-17T02:02:27.490Z,8.80
2019-03-17T02:04:56.714Z,8.80
2019-03-17T02:07:25.789Z,8.80
2019-03-17T02:09:55.030Z,8.80
2019-03-17T02:12:24.183Z,8.80
2019-03-17T02:14:53.762Z,8.80
2019-03-17T02:17:22.963Z,8.80
2019-03-17T02:19:52.570Z,8.80
2019-03-17T02:22:22.338Z,8.80
2019-03-17T02:24:51.634Z,8.80
2019-03-17T02:27:20.764Z,8.80
2019-03-17T02:29:50.221Z,8.80
2019-03-17T02:32:19.659Z,8.80
2019-03-17T02:34:49.747Z,8.80
2019-03-17T02:37:19.174Z,8.80
2019-03-17T02:39:48.489Z,8.80
2019-03-17T02:42:17.624Z,8.80
2019-03-17T02:44:47.177Z,8.80
2019-03-17T02:47:16.345Z,8.80
2019-03-17T02:49:45.808Z,8.80
2019-03-17T02:52:14.953Z,8.80
2019-03-17T02:54:44.074Z,8.80
2019-03-17T02:57:13.391Z,8.80
2019-03-17T02:59:42.528Z,8.80
2019-03-17T03:02:11.899Z,8.80
2019-03-17T03:04:41.349Z,8.80
2019-03-17T03:07:10.549Z,8.70
2019-03-17T03:09:39.984Z,8.70
2019-03-17T03:12:09.218Z,8.70
2019-03-17T03:14:38.355Z,8.70
2019-03-17T03:17:07.857Z,8.70
2019-03-17T03:19:37.487Z,8.70
2019-03-17T03:22:06.710Z,8.70
2019-03-17T03:24:35.999Z,8.70
2019-03-17T03:27:05.104Z,8.70
2019-03-17T03:29:40.349Z,8.70
2019-03-17T03:32:09.586Z,8.70
2019-03-17T03:34:39.343Z,8.70
2019-03-17T03:37:08.525Z,8.70
2019-03-17T03:39:37.732Z,8.70
2019-03-17T03:42:06.845Z,8.70
2019-03-17T03:44:36.357Z,8.70
2019-03-17T03:47:05.778Z,8.70
2019-03-17T03:49:34.879Z,8.70
2019-03-17T03:52:04.424Z,8.70
2019-03-17T03:54:33.781Z,8.70
2019-03-17T03:57:03.230Z,8.70
2019-03-17T03:59:32.390Z,8.60
2019-03-17T04:02:01.598Z,8.60
2019-03-17T04:04:31.080Z,8.60
2019-03-17T04:07:00.599Z,8.60
2019-03-17T04:09:32.856Z,8.60
2019-03-17T04:12:02.317Z,8.60
2019-03-17T04:14:31.508Z,8.60
2019-03-17T04:17:00.921Z,8.60
2019-03-17T04:19:30.445Z,8.60
2019-03-17T04:21:59.581Z,8.60
2019-03-17T04:24:29.940Z,8.60
2019-03-17T04:27:02.205Z,8.60
2019-03-17T04:29:31.369Z,8.60
2019-03-17T04:32:00.732Z,8.60
2019-03-17T04:34:30.021Z,8.60
2019-03-17T04:36:59.100Z,8.60
2019-03-17T04:39:28.213Z,8.50
2019-03-17T04:41:57.333Z,8.50
2019-03-17T04:44:26.798Z,8.50
2019-03-17T04:46:55.989Z,8.50
2019-03-17T04:49:25.414Z,8.50
2019-03-17T04:51:54.909Z,8.50
2019-03-17T04:54:24.068Z,8.50
2019-03-17T04:56:53.255Z,8.50
2019-03-17T04:59:22.551Z,8.50
2019-03-17T05:01:51.769Z,8.50
2019-03-17T05:04:21.046Z,8.50
2019-03-17T05:06:52.946Z,8.50
2019-03-17T05:09:21.362Z,8.50
2019-03-17T05:11:50.591Z,8.50
2019-03-17T05:14:20.297Z,8.50
2019-03-17T05:16:49.898Z,8.50
2019-03-17T05:19:19.610Z,8.40
2019-03-17T05:21:48.871Z,8.40
2019-03-17T05:24:18.314Z,8.40
2019-03-17T05:26:47.601Z,8.40
2019-03-17T05:32:11.151Z,8.40
2019-03-17T05:34:40.793Z,8.40
2019-03-17T05:37:10.298Z,8.40
2019-03-17T05:39:39.750Z,8.40
2019-03-17T05:42:09.404Z,8.40
2019-03-17T05:44:39.451Z,8.40
2019-03-17T05:47:09.040Z,8.40
2019-03-17T05:49:38.533Z,8.40
2019-03-17T05:52:07.958Z,8.40
2019-03-17T05:54:37.335Z,8.30
2019-03-17T05:57:07.042Z,8.30
2019-03-17T05:59:36.288Z,8.30
2019-03-17T06:05:46.670Z,8.20
2019-03-17T06:08:16.791Z,8.20
2019-03-17T06:10:46.992Z,8.10
2019-03-17T06:13:18.232Z,8.10
2019-03-17T06:15:48.223Z,8.10
2019-03-17T06:18:18.268Z,8.00
2019-03-17T06:20:48.282Z,8.00
2019-03-17T06:23:17.718Z,7.90
2019-03-17T06:25:47.235Z,7.90
2019-03-17T06:28:16.707Z,7.90
2019-03-17T06:30:46.687Z,7.80
2019-03-17T06:33:16.126Z,7.80
2019-03-17T06:35:45.907Z,7.80
2019-03-17T06:38:15.517Z,7.80
2019-03-17T06:40:45.029Z,7.80
2019-03-17T06:43:14.407Z,7.80
2019-03-17T06:45:43.968Z,7.70
2019-03-17T06:48:13.576Z,7.70
2019-03-17T06:50:42.846Z,7.70
2019-03-17T06:53:12.388Z,7.70
2019-03-17T06:55:41.734Z,7.70
2019-03-17T06:58:11.165Z,7.70
2019-03-17T07:00:41.470Z,7.70
2019-03-17T07:03:10.676Z,7.60
2019-03-17T07:05:40.052Z,7.60
2019-03-17T07:08:09.298Z,7.60
2019-03-17T07:10:38.916Z,7.60
2019-03-17T07:13:08.329Z,7.60
2019-03-17T07:15:37.883Z,7.60
2019-03-17T07:18:07.670Z,7.60
2019-03-17T07:20:37.476Z,7.50
2019-03-17T07:23:06.957Z,7.50
2019-03-17T07:25:36.646Z,7.50
2019-03-17T07:28:05.974Z,7.50
2019-03-17T07:30:35.685Z,7.50
2019-03-17T07:33:05.375Z,7.50
2019-03-17T07:35:35.516Z,7.50
2019-03-17T07:38:05.285Z,7.50
2019-03-17T07:40:34.642Z,7.50
2019-03-17T07:43:04.842Z,7.50
2019-03-17T07:49:15.945Z,7.50
2019-03-17T07:51:45.622Z,7.50
2019-03-17T07:54:15.177Z,7.50
2019-03-17T07:56:44.709Z,7.50
2019-03-17T07:59:14.169Z,7.50
2019-03-17T08:01:43.912Z,7.40
2019-03-17T08:07:54.734Z,7.40
2019-03-17T08:10:24.190Z,7.40
2019-03-17T08:12:53.639Z,7.40
2019-03-17T08:15:23.360Z,7.40
2019-03-17T08:17:53.092Z,7.40
2019-03-17T08:20:22.992Z,7.40
2019-03-17T08:22:52.453Z,7.40
2019-03-17T08:25:21.812Z,7.40
2019-03-17T08:27:51.325Z,7.40
2019-03-17T08:30:21.004Z,7.30
2019-03-17T08:32:50.420Z,7.30
2019-03-17T08:35:20.372Z,7.30
2019-03-17T08:37:49.966Z,7.30
2019-03-17T08:40:19.372Z,7.30
2019-03-17T08:42:49.006Z,7.30
2019-03-17T08:45:18.406Z,7.40
2019-03-17T08:47:57.116Z,7.30
2019-03-17T08:50:24.702Z,7.40
2019-03-17T08:52:54.496Z,7.40
2019-03-17T08:55:24.217Z,7.40
2019-03-17T08:57:55.277Z,7.40
2019-03-17T09:00:24.685Z,7.40
2019-03-17T09:02:54.155Z,7.50
2019-03-17T09:05:23.637Z,7.50
2019-03-17T09:07:53.054Z,7.50
2019-03-17T09:10:22.384Z,7.50
2019-03-17T09:12:52.003Z,7.50
2019-03-17T09:15:26.590Z,7.50
2019-03-17T09:17:56.174Z,7.50
2019-03-17T09:20:25.729Z,7.50
2019-03-17T09:22:55.341Z,7.50
2019-03-17T09:25:24.817Z,7.50
2019-03-17T09:27:54.389Z,7.50
2019-03-17T09:30:25.583Z,7.50
2019-03-17T09:32:55.342Z,7.50
2019-03-17T09:35:24.816Z,7.50
2019-03-17T09:37:54.372Z,7.60
2019-03-17T09:40:23.751Z,7.50
2019-03-17T09:42:53.119Z,7.50
2019-03-17T09:45:48.853Z,7.50
2019-03-17T09:48:18.469Z,7.50
2019-03-17T09:50:48.106Z,7.50
2019-03-17T09:53:17.478Z,7.50
2019-03-17T09:56:04.549Z,7.60
2019-03-17T09:58:33.896Z,7.60
2019-03-17T10:01:03.270Z,7.60
2019-03-17T10:03:32.879Z,7.60
2019-03-17T10:06:02.280Z,7.70
2019-03-17T10:08:31.518Z,7.70
2019-03-17T10:11:00.873Z,7.80
2019-03-17T10:13:30.461Z,7.80
2019-03-17T10:15:59.856Z,7.80
2019-03-17T10:18:29.300Z,7.80
2019-03-17T10:20:58.628Z,7.90
2019-03-17T10:23:28.209Z,7.90
2019-03-17T10:25:57.576Z,8.00
2019-03-17T10:28:26.931Z,8.00
2019-03-17T10:30:56.709Z,8.00
2019-03-17T10:33:38.269Z,8.00
2019-03-17T10:36:07.949Z,8.10
2019-03-17T10:38:37.262Z,8.10
2019-03-17T10:41:06.640Z,8.10
2019-03-17T10:43:36.281Z,8.10
2019-03-17T10:46:05.600Z,8.10
2019-03-17T10:48:50.838Z,8.10
2019-03-17T10:51:20.148Z,8.20
2019-03-17T10:53:49.491Z,8.20
2019-03-17T10:56:18.868Z,8.20
2019-03-17T10:58:48.190Z,8.20
2019-03-17T11:01:18.040Z,8.20
2019-03-17T11:03:47.469Z,8.20
2019-03-17T11:06:17.050Z,8.20
2019-03-17T11:08:47.817Z,8.20
2019-03-17T11:11:17.489Z,8.30
2019-03-17T11:13:47.135Z,8.30
2019-03-17T11:16:16.570Z,8.30
2019-03-17T11:18:45.759Z,8.40
2019-03-17T11:21:37.545Z,8.40
2019-03-17T11:24:06.844Z,8.40
2019-03-17T11:26:36.684Z,8.50
2019-03-17T11:29:06.051Z,8.60
2019-03-17T11:35:16.621Z,8.70
2019-03-17T11:37:46.064Z,8.80
2019-03-17T11:40:15.721Z,8.90
2019-03-17T11:42:45.118Z,8.90
2019-03-17T11:45:14.531Z,9.00
2019-03-17T11:47:49.890Z,9.00
2019-03-17T11:50:19.427Z,9.10
2019-03-17T11:52:48.859Z,9.10
2019-03-17T11:55:18.448Z,9.20
2019-03-17T11:57:47.775Z,9.30
2019-03-17T12:00:17.325Z,9.40
2019-03-17T12:02:50.082Z,9.50
2019-03-17T12:05:19.906Z,9.60
2019-03-17T12:07:49.402Z,9.70
2019-03-17T12:10:18.956Z,9.70
2019-03-17T12:12:48.370Z,9.70
2019-03-17T12:15:17.802Z,9.70
2019-03-17T12:17:47.540Z,9.60
2019-03-17T12:20:16.968Z,9.50
2019-03-17T12:22:46.462Z,9.40
2019-03-17T12:25:16.068Z,9.40
2019-03-17T12:27:45.490Z,9.30
2019-03-17T12:30:21.487Z,9.30
2019-03-17T12:32:51.279Z,9.20
2019-03-17T12:35:20.774Z,9.20
2019-03-17T12:37:50.282Z,9.10
2019-03-17T12:40:19.699Z,9.10
2019-03-17T12:42:49.078Z,9.10
2019-03-17T12:45:18.912Z,9.10
2019-03-17T12:47:48.292Z,9.10
2019-03-17T12:50:17.662Z,9.20
2019-03-17T12:52:47.053Z,9.40
2019-03-17T12:55:16.430Z,9.60
2019-03-17T12:57:46.133Z,9.70
2019-03-17T13:00:16.076Z,9.70
2019-03-17T13:06:27.215Z,9.40
2019-03-17T13:09:01.022Z,9.20
2019-03-17T13:11:31.038Z,9.10
2019-03-17T13:14:00.752Z,9.10
2019-03-17T13:16:30.130Z,9.20
2019-03-17T13:18:59.924Z,9.30
2019-03-17T13:25:10.790Z,9.30
2019-03-17T13:27:40.860Z,9.20
2019-03-17T13:30:11.473Z,9.20
2019-03-17T13:36:22.562Z,9.20
2019-03-17T13:38:52.466Z,9.30
2019-03-17T13:41:22.066Z,9.30
2019-03-17T13:43:51.835Z,9.40
2019-03-17T13:46:21.299Z,9.50
2019-03-17T13:48:50.766Z,9.70
2019-03-17T13:51:20.063Z,9.80
2019-03-17T13:53:49.379Z,10.00
2019-03-17T13:56:18.678Z,10.00
2019-03-17T13:58:48.824Z,10.00
2019-03-17T14:01:18.085Z,9.90
2019-03-17T14:03:47.963Z,9.80
2019-03-17T14:06:17.771Z,9.70
2019-03-17T14:08:47.429Z,9.60
2019-03-17T14:11:16.815Z,9.50
2019-03-17T14:13:46.515Z,9.50
2019-03-17T14:16:15.958Z,9.40
2019-03-17T14:18:45.910Z,9.40
2019-03-17T14:21:15.635Z,9.30
2019-03-17T14:23:45.242Z,9.10
2019-03-17T14:26:15.069Z,9.00
2019-03-17T14:28:44.873Z,8.90
2019-03-17T14:31:14.153Z,8.90
2019-03-17T14:33:43.820Z,8.90
2019-03-17T14:36:13.177Z,9.00
2019-03-17T14:38:43.031Z,9.10
2019-03-17T14:41:12.811Z,9.30
2019-03-17T14:43:42.941Z,9.50
2019-03-17T14:46:12.276Z,9.60
2019-03-17T14:52:23.413Z,9.70
2019-03-17T14:54:52.812Z,9.70
2019-03-17T14:57:22.326Z,9.60
2019-03-17T14:59:52.920Z,9.40
2019-03-17T15:02:22.495Z,9.30
2019-03-17T15:04:54.659Z,9.30
2019-03-17T15:07:26.181Z,9.30
2019-03-17T15:09:55.452Z,9.30
2019-03-17T15:12:25.572Z,9.30
2019-03-17T15:14:55.529Z,9.30
2019-03-17T15:21:08.652Z,9.20
2019-03-17T15:23:38.089Z,9.20
2019-03-17T15:26:07.539Z,9.20
2019-03-17T15:28:37.395Z,9.10
2019-03-17T15:31:11.842Z,9.10
2019-03-17T15:37:19.366Z,9.00
2019-03-17T15:43:36.975Z,8.80
2019-03-17T15:49:57.990Z,8.30
2019-03-17T15:52:29.452Z,8.10
2019-03-17T15:55:01.834Z,7.90
2019-03-17T15:57:31.262Z,7.80
2019-03-17T16:00:02.403Z,7.70
2019-03-17T16:02:32.971Z,7.70
2019-03-17T16:05:03.437Z,7.70
2019-03-17T16:07:41.771Z,7.70
2019-03-17T16:10:04.939Z,7.70
2019-03-17T16:16:15.975Z,7.70
2019-03-17T16:18:52.665Z,7.70
2019-03-17T16:21:32.624Z,7.60
2019-03-17T16:24:10.220Z,7.60
2019-03-17T16:30:22.732Z,7.40
2019-03-17T16:32:55.050Z,7.30
2019-03-17T16:35:30.826Z,7.30
2019-03-17T16:41:44.098Z,7.10
2019-03-17T16:44:13.876Z,7.10
2019-03-17T16:46:43.899Z,7.10
2019-03-17T16:49:13.443Z,7.00
2019-03-17T16:51:43.425Z,7.00
2019-03-17T16:58:19.133Z,7.00
2019-03-17T17:00:40.492Z,7.00
2019-03-17T17:03:15.844Z,7.00
2019-03-17T17:09:03.252Z,7.00
2019-03-17T17:11:33.139Z,7.00
2019-03-17T17:14:21.877Z,7.00
2019-03-17T17:20:32.798Z,6.90
2019-03-17T17:23:13.727Z,6.80
2019-03-17T17:25:44.699Z,6.80
2019-03-17T17:28:21.061Z,6.80
2019-03-17T17:31:27.878Z,6.70
2019-03-17T17:33:57.713Z,6.60
2019-03-17T17:36:28.918Z,6.60
2019-03-17T17:38:59.061Z,6.50
2019-03-17T17:41:28.616Z,6.40
2019-03-17T17:43:59.071Z,6.40
2019-03-17T17:46:28.698Z,6.30
2019-03-17T17:49:05.818Z,6.20
2019-03-17T17:51:35.524Z,6.20
2019-03-17T17:54:05.098Z,6.10
2019-03-17T17:56:34.438Z,6.00
2019-03-17T17:59:03.948Z,6.00
2019-03-17T18:01:33.577Z,6.00
2019-03-17T18:04:02.831Z,5.90
2019-03-17T18:06:32.459Z,5.90
2019-03-17T18:09:02.802Z,5.90
2019-03-17T18:11:32.668Z,5.80
2019-03-17T18:14:01.942Z,5.80
2019-03-17T18:16:31.520Z,5.80
2019-03-17T18:19:01.918Z,5.80
2019-03-17T18:21:31.343Z,5.80
2019-03-17T18:24:00.677Z,5.80
2019-03-17T18:26:30.529Z,5.80
2019-03-17T18:28:59.772Z,5.80
2019-03-17T18:31:29.345Z,5.80
2019-03-17T18:33:58.832Z,5.70
2019-03-17T18:36:28.679Z,5.70
2019-03-17T18:38:58.545Z,5.70
2019-03-17T18:41:27.793Z,5.70
2019-03-17T18:43:57.396Z,5.60
2019-03-17T18:46:26.642Z,5.60
2019-03-17T18:48:58.490Z,5.50
2019-03-17T18:51:32.779Z,5.40
2019-03-17T18:54:05.352Z,5.10
2019-03-17T18:56:33.635Z,5.00
2019-03-17T18:59:03.034Z,4.80
2019-03-17T19:01:32.560Z,4.70
2019-03-17T19:04:02.073Z,4.60
2019-03-17T19:06:31.682Z,4.40
2019-03-17T19:09:01.153Z,4.30
2019-03-17T19:11:30.666Z,4.30
2019-03-17T19:13:59.988Z,4.30
2019-03-17T19:16:29.508Z,4.30
2019-03-17T19:18:59.756Z,4.30
2019-03-17T19:21:31.291Z,4.30
2019-03-17T19:24:01.016Z,4.30
2019-03-17T19:26:30.564Z,4.30
2019-03-17T19:28:59.980Z,4.30
2019-03-17T19:31:29.174Z,4.30
2019-03-17T19:33:58.869Z,4.20
2019-03-17T19:36:28.436Z,4.20
2019-03-17T19:38:58.059Z,4.20
2019-03-17T19:41:27.704Z,4.20
2019-03-17T19:43:57.273Z,4.20
2019-03-17T19:46:26.649Z,4.10
2019-03-17T19:48:56.255Z,4.10
2019-03-17T19:51:25.898Z,4.10
2019-03-17T19:53:55.190Z,4.10
2019-03-17T19:56:24.743Z,4.10
2019-03-17T19:58:54.553Z,4.10
2019-03-17T20:01:23.851Z,4.00
2019-03-17T20:04:01.340Z,3.90
2019-03-17T20:06:30.559Z,3.90
2019-03-17T20:08:59.902Z,3.90
2019-03-17T20:11:29.127Z,3.80
2019-03-17T20:14:04.036Z,3.80
2019-03-17T20:16:32.868Z,3.70
2019-03-17T20:19:05.649Z,3.70
2019-03-17T20:21:38.081Z,3.70
2019-03-17T20:24:26.928Z,3.70
2019-03-17T20:26:56.907Z,3.60
2019-03-17T20:29:28.821Z,3.70
2019-03-17T20:31:57.925Z,3.60
2019-03-17T20:34:27.409Z,3.60
2019-03-17T20:36:56.877Z,3.60
2019-03-17T20:39:26.389Z,3.50
2019-03-17T20:41:56.460Z,3.50
2019-03-17T20:45:02.748Z,3.50
2019-03-17T20:47:32.027Z,3.50
2019-03-17T20:50:01.356Z,3.40
2019-03-17T20:52:40.593Z,3.40
2019-03-17T20:55:14.583Z,3.40
2019-03-17T21:09:19.448Z,3.30
2019-03-17T21:11:48.972Z,3.20
2019-03-17T21:14:20.337Z,3.20
2019-03-17T21:16:49.534Z,3.20
2019-03-17T21:19:28.481Z,3.10
2019-03-17T21:22:38.425Z,3.10
2019-03-17T21:25:11.370Z,3.10
2019-03-17T21:27:40.597Z,3.00
2019-03-17T21:34:15.432Z,3.00
2019-03-17T21:40:28.971Z,2.90
2019-03-17T21:43:36.266Z,2.90
2019-03-17T21:46:36.430Z,2.80
2019-03-17T22:06:49.373Z,2.70
2019-03-17T22:13:02.864Z,2.70
2019-03-17T22:15:37.561Z,2.60
2019-03-17T22:19:03.372Z,2.60
2019-03-17T22:21:37.947Z,2.60
2019-03-17T22:25:01.265Z,2.50
2019-03-17T22:27:51.683Z,2.60
2019-03-17T22:31:15.574Z,2.60
2019-03-17T22:34:48.445Z,2.60
2019-03-17T22:37:20.299Z,2.70
2019-03-17T22:40:11.238Z,2.70
2019-03-17T22:43:35.152Z,2.70
2019-03-17T22:46:07.807Z,2.70
2019-03-17T22:52:21.286Z,2.80
2019-03-17T22:54:57.153Z,2.80
2019-03-17T22:57:46.085Z,2.80
2019-03-17T23:00:26.396Z,2.80
2019-03-17T23:06:39.504Z,2.80
2019-03-17T23:09:09.137Z,2.80
2019-03-17T23:11:39.563Z,2.80
2019-03-17T23:14:09.656Z,2.80
2019-03-17T23:16:40.963Z,2.80
2019-03-17T23:19:10.734Z,2.80
2019-03-17T23:22:01.268Z,2.80
2019-03-17T23:24:38.203Z,2.80
2019-03-17T23:27:07.598Z,2.80
2019-03-17T23:29:40.246Z,2.80
2019-03-17T23:32:10.729Z,2.90
2019-03-17T23:35:44.049Z,2.80
2019-03-17T23:38:14.987Z,2.80
2019-03-17T23:40:47.355Z,2.80
2019-03-17T23:43:19.421Z,2.80
2019-03-17T23:45:49.313Z,2.80
2019-03-17T23:48:19.256Z,2.90
2019-03-17T23:50:50.239Z,2.90
2019-03-17T23:53:25.439Z,2.90
2019-03-17T23:55:58.013Z,2.90
2019-03-17T23:58:33.400Z,2.90
